createdAt,value
2023-08-27T00:00:24.754Z,99581.14
2023-08-27T00:02:52.095Z,99577.65
2023-08-27T00:05:19.623Z,99576.15
2023-08-27T00:07:47.146Z,99574.33
2023-08-27T00:10:15.086Z,99571.68
2023-08-27T00:12:42.442Z,99570.96
2023-08-27T00:15:10.272Z,99568.60
2023-08-27T00:17:37.820Z,99565.65
2023-08-27T00:20:10.360Z,99564.81
2023-08-27T00:22:38.403Z,99562.20
2023-08-27T00:25:06.206Z,99563.23
2023-08-27T00:27:35.398Z,99559.71
2023-08-27T00:30:05.897Z,99557.86
2023-08-27T00:32:34.825Z,99556.35
2023-08-27T00:35:04.948Z,99557.10
2023-08-27T00:37:32.396Z,99559.86
2023-08-27T00:39:59.752Z,99563.14
2023-08-27T00:42:27.695Z,99563.14
2023-08-27T00:44:55.125Z,99562.39
2023-08-27T00:47:22.445Z,99568.70
2023-08-27T00:49:50.536Z,99572.27
2023-08-27T00:52:18.022Z,99579.71
2023-08-27T00:54:45.853Z,99583.28
2023-08-27T00:57:13.425Z,99583.90
2023-08-27T00:59:40.833Z,99588.48
2023-08-27T01:02:08.478Z,99589.65
2023-08-27T01:04:36.416Z,99591.83
2023-08-27T01:07:07.404Z,99591.41
2023-08-27T01:09:38.911Z,99591.17
2023-08-27T01:12:10.746Z,99591.16
2023-08-27T01:14:38.456Z,99592.39
2023-08-27T01:17:06.423Z,99593.64
2023-08-27T01:19:34.394Z,99590.23
2023-08-27T01:22:01.714Z,99589.77
2023-08-27T01:24:29.102Z,99586.42
2023-08-27T01:27:04.654Z,99583.69
2023-08-27T01:29:46.177Z,99578.30
2023-08-27T01:32:29.788Z,99572.77
2023-08-27T01:34:57.679Z,99575.77
2023-08-27T01:37:25.003Z,99573.70
2023-08-27T01:40:07.018Z,99572.84
2023-08-27T01:42:36.624Z,99569.41
2023-08-27T01:45:05.404Z,99564.92
2023-08-27T01:47:33.305Z,99563.42
2023-08-27T01:50:00.662Z,99560.40
2023-08-27T01:52:28.249Z,99561.25
2023-08-27T01:54:55.651Z,99560.90
2023-08-27T01:57:22.985Z,99558.30
2023-08-27T01:59:50.260Z,99556.31
2023-08-27T02:02:17.756Z,99556.42
2023-08-27T02:04:45.363Z,99558.42
2023-08-27T02:07:12.647Z,99554.70
2023-08-27T02:09:40.027Z,99545.45
2023-08-27T02:12:08.094Z,99539.61
2023-08-27T02:14:37.729Z,99535.95
2023-08-27T02:17:05.444Z,99535.83
2023-08-27T02:19:32.987Z,99537.98
2023-08-27T02:22:00.901Z,99535.65
2023-08-27T02:24:28.290Z,99534.88
2023-08-27T02:26:55.689Z,99539.54
2023-08-27T02:29:22.987Z,99538.41
2023-08-27T02:31:50.364Z,99538.98
2023-08-27T02:34:17.732Z,99538.48
2023-08-27T02:36:45.105Z,99542.73
2023-08-27T02:39:12.875Z,99543.58
2023-08-27T02:41:40.198Z,99549.38
2023-08-27T02:44:07.474Z,99545.48
2023-08-27T02:46:34.847Z,99542.42
2023-08-27T02:49:02.122Z,99549.06
2023-08-27T02:51:29.380Z,99552.78
2023-08-27T02:53:56.926Z,99548.73
2023-08-27T02:56:24.314Z,99549.60
2023-08-27T02:58:52.239Z,99549.98
2023-08-27T03:01:21.605Z,99549.55
2023-08-27T03:03:51.054Z,99554.55
2023-08-27T03:06:19.338Z,99553.31
2023-08-27T03:08:47.105Z,99549.77
2023-08-27T03:11:14.448Z,99547.96
2023-08-27T03:13:41.990Z,99539.07
2023-08-27T03:16:09.489Z,99530.13
2023-08-27T03:18:37.265Z,99528.58
2023-08-27T03:21:04.522Z,99527.90
2023-08-27T03:23:35.596Z,99528.27
2023-08-27T03:26:02.907Z,99532.08
2023-08-27T03:28:30.284Z,99539.80
2023-08-27T03:30:57.758Z,99542.94
2023-08-27T03:33:25.057Z,99546.17
2023-08-27T03:35:55.857Z,99539.78
2023-08-27T03:38:23.253Z,99540.59
2023-08-27T03:40:50.871Z,99539.47
2023-08-27T03:43:18.322Z,99540.92
2023-08-27T03:45:45.791Z,99544.00
2023-08-27T03:48:13.122Z,99557.48
2023-08-27T03:50:40.952Z,99557.27
2023-08-27T03:53:08.673Z,99558.02
2023-08-27T03:55:42.679Z,99551.41
2023-08-27T03:58:11.011Z,99551.05
2023-08-27T04:00:39.554Z,99557.11
2023-08-27T04:03:07.331Z,99557.25
2023-08-27T04:05:34.854Z,99559.43
2023-08-27T04:08:02.212Z,99561.67
2023-08-27T04:10:29.790Z,99568.08
2023-08-27T04:12:58.111Z,99557.27
2023-08-27T04:15:27.422Z,99546.91
2023-08-27T04:17:55.173Z,99541.86
2023-08-27T04:20:22.653Z,99537.56
2023-08-27T04:22:49.934Z,99534.70
2023-08-27T04:25:17.357Z,99544.23
2023-08-27T04:29:37.570Z,99591.60
2023-08-27T04:32:05.280Z,99574.70
2023-08-27T04:34:32.615Z,99566.10
2023-08-27T04:37:02.159Z,99562.70
2023-08-27T04:39:29.564Z,99561.17
2023-08-27T04:41:59.003Z,99557.33
2023-08-27T04:44:27.351Z,99552.45
2023-08-27T04:46:57.836Z,99547.12
2023-08-27T04:49:26.103Z,99550.55
2023-08-27T04:51:53.419Z,99549.84
2023-08-27T04:54:20.714Z,99546.73
2023-08-27T04:56:47.996Z,99554.29
2023-08-27T04:59:16.829Z,99555.52
2023-08-27T05:01:44.171Z,99555.43
2023-08-27T05:04:11.499Z,99548.36
2023-08-27T05:06:39.061Z,99547.15
2023-08-27T05:09:07.057Z,99545.37
2023-08-27T05:11:34.478Z,99543.60
2023-08-27T05:14:01.825Z,99540.06
2023-08-27T05:16:30.268Z,99536.67
2023-08-27T05:18:57.781Z,99533.20
2023-08-27T05:21:25.056Z,99533.30
2023-08-27T05:23:54.011Z,99533.17
2023-08-27T05:26:21.321Z,99537.00
2023-08-27T05:28:49.229Z,99542.61
2023-08-27T05:31:16.594Z,99540.34
2023-08-27T05:33:45.135Z,99535.27
2023-08-27T05:36:12.810Z,99544.78
2023-08-27T05:38:40.095Z,99544.55
2023-08-27T05:41:07.482Z,99538.05
2023-08-27T05:43:34.851Z,99537.46
2023-08-27T05:46:02.167Z,99539.77
2023-08-27T05:48:31.607Z,99536.98
2023-08-27T05:51:02.434Z,99539.46
2023-08-27T05:53:30.183Z,99535.55
2023-08-27T05:55:57.643Z,99528.11
2023-08-27T05:58:24.954Z,99527.06
2023-08-27T06:00:54.261Z,99529.08
2023-08-27T06:03:22.595Z,99538.26
2023-08-27T06:05:50.046Z,99540.86
2023-08-27T06:08:17.537Z,99532.96
2023-08-27T06:10:46.020Z,99529.48
2023-08-27T06:13:13.272Z,99523.39
2023-08-27T06:15:40.657Z,99519.55
2023-08-27T06:18:08.742Z,99518.86
2023-08-27T06:20:36.281Z,99513.89
2023-08-27T06:23:07.515Z,99514.73
2023-08-27T06:25:35.432Z,99521.77
2023-08-27T06:28:04.183Z,99526.87
2023-08-27T06:30:34.825Z,99527.99
2023-08-27T06:33:06.082Z,99530.66
2023-08-27T06:35:33.662Z,99534.65
2023-08-27T06:38:01.314Z,99534.41
2023-08-27T06:40:29.356Z,99532.37
2023-08-27T06:42:57.393Z,99537.39
2023-08-27T06:45:27.739Z,99537.48
2023-08-27T06:47:56.336Z,99537.30
2023-08-27T06:50:25.595Z,99538.30
2023-08-27T06:52:53.054Z,99537.56
2023-08-27T06:55:21.039Z,99539.05
2023-08-27T06:57:48.367Z,99540.39
2023-08-27T07:00:15.865Z,99543.58
2023-08-27T07:02:45.432Z,99536.39
2023-08-27T07:05:13.636Z,99532.84
2023-08-27T07:07:41.525Z,99536.29
2023-08-27T07:10:09.589Z,99539.02
2023-08-27T07:12:38.182Z,99549.51
2023-08-27T07:15:08.658Z,99548.15
2023-08-27T07:17:36.803Z,99549.82
2023-08-27T07:20:08.614Z,99552.25
2023-08-27T07:22:36.386Z,99561.23
2023-08-27T07:25:05.075Z,99565.84
2023-08-27T07:27:34.307Z,99566.80
2023-08-27T07:30:01.691Z,99573.08
2023-08-27T07:32:29.008Z,99579.44
2023-08-27T07:34:56.359Z,99585.67
2023-08-27T07:37:24.842Z,99588.85
2023-08-27T07:39:52.571Z,99588.63
2023-08-27T07:42:22.796Z,99592.02
2023-08-27T07:44:50.256Z,99596.14
2023-08-27T07:47:17.904Z,99600.65
2023-08-27T07:49:45.429Z,99598.17
2023-08-27T07:52:12.804Z,99604.48
2023-08-27T07:54:40.376Z,99609.19
2023-08-27T07:57:07.861Z,99616.86
2023-08-27T07:59:35.188Z,99617.23
2023-08-27T08:02:02.627Z,99616.26
2023-08-27T08:04:30.445Z,99615.32
2023-08-27T08:06:57.873Z,99617.80
2023-08-27T08:09:25.111Z,99622.81
2023-08-27T08:11:52.652Z,99629.91
2023-08-27T08:14:19.929Z,99631.19
2023-08-27T08:16:47.669Z,99629.92
2023-08-27T08:19:15.283Z,99628.46
2023-08-27T08:21:42.647Z,99636.80
2023-08-27T08:24:10.015Z,99637.36
2023-08-27T08:26:37.302Z,99644.08
2023-08-27T08:29:04.706Z,99645.88
2023-08-27T08:31:32.007Z,99646.44
2023-08-27T08:33:59.327Z,99653.95
2023-08-27T08:36:26.708Z,99651.29
2023-08-27T08:38:54.252Z,99655.42
2023-08-27T08:41:23.575Z,99656.81
2023-08-27T08:43:53.835Z,99659.91
2023-08-27T08:46:21.813Z,99659.67
2023-08-27T08:48:51.051Z,99660.05
2023-08-27T08:51:23.456Z,99656.60
2023-08-27T08:53:51.627Z,99657.55
2023-08-27T08:56:24.853Z,99662.50
2023-08-27T08:58:59.203Z,99663.48
2023-08-27T09:01:26.710Z,99665.52
2023-08-27T09:03:54.094Z,99668.20
2023-08-27T09:06:22.306Z,99670.84
2023-08-27T09:08:50.948Z,99670.80
2023-08-27T09:11:18.673Z,99670.61
2023-08-27T09:13:46.044Z,99675.80
2023-08-27T09:16:13.596Z,99682.95
2023-08-27T09:18:40.987Z,99682.58
2023-08-27T09:21:08.481Z,99685.60
2023-08-27T09:23:39.056Z,99686.30
2023-08-27T09:26:07.169Z,99687.26
2023-08-27T09:28:35.052Z,99686.73
2023-08-27T09:31:05.581Z,99684.19
2023-08-27T09:33:41.424Z,99686.61
2023-08-27T09:36:09.963Z,99691.41
2023-08-27T09:38:37.700Z,99690.40
2023-08-27T09:41:18.326Z,99685.34
2023-08-27T09:43:54.069Z,99693.74
2023-08-27T09:46:21.710Z,99694.67
2023-08-27T09:48:59.550Z,99694.76
2023-08-27T09:51:30.509Z,99698.10
2023-08-27T09:53:58.007Z,99699.46
2023-08-27T09:56:29.005Z,99699.61
2023-08-27T09:58:56.492Z,99711.06
2023-08-27T10:01:24.740Z,99713.77
2023-08-27T10:03:52.257Z,99719.02
2023-08-27T10:06:19.573Z,99720.45
2023-08-27T10:08:48.702Z,99721.04
2023-08-27T10:11:16.132Z,99722.41
2023-08-27T10:13:44.411Z,99719.98
2023-08-27T10:16:12.456Z,99725.02
2023-08-27T10:18:40.747Z,99714.40
2023-08-27T10:21:09.833Z,99713.48
2023-08-27T10:23:39.481Z,99702.54
2023-08-27T10:26:06.912Z,99710.50
2023-08-27T10:28:34.987Z,99711.78
2023-08-27T10:31:04.636Z,99717.13
2023-08-27T10:33:32.706Z,99713.67
2023-08-27T10:36:02.998Z,99719.73
2023-08-27T10:38:30.430Z,99721.96
2023-08-27T10:40:57.794Z,99718.34
2023-08-27T10:43:25.259Z,99712.40
2023-08-27T10:45:53.553Z,99708.15
2023-08-27T10:48:23.528Z,99705.07
2023-08-27T10:51:00.008Z,99700.10
2023-08-27T10:53:27.290Z,99698.28
2023-08-27T10:55:54.707Z,99693.42
2023-08-27T10:58:22.584Z,99689.41
2023-08-27T11:01:11.429Z,99693.83
2023-08-27T11:03:54.818Z,99691.08
2023-08-27T11:06:37.787Z,99686.48
2023-08-27T11:09:30.719Z,99685.69
2023-08-27T11:12:01.506Z,99684.39
2023-08-27T11:14:28.775Z,99682.18
2023-08-27T11:16:59.420Z,99682.95
2023-08-27T11:19:39.502Z,99687.95
2023-08-27T11:22:20.174Z,99686.06
2023-08-27T11:24:49.240Z,99689.23
2023-08-27T11:27:17.989Z,99683.59
2023-08-27T11:29:47.679Z,99684.88
2023-08-27T11:32:15.295Z,99685.09
2023-08-27T11:34:46.765Z,99679.15
2023-08-27T11:37:17.437Z,99678.92
2023-08-27T11:39:46.358Z,99676.31
2023-08-27T11:42:17.425Z,99674.32
2023-08-27T11:44:51.773Z,99675.92
2023-08-27T11:47:20.472Z,99670.58
2023-08-27T11:49:47.927Z,99667.77
2023-08-27T11:52:15.455Z,99674.98
2023-08-27T11:54:47.838Z,99674.67
2023-08-27T11:57:17.240Z,99675.30
2023-08-27T11:59:45.101Z,99670.98
2023-08-27T12:02:14.365Z,99663.66
2023-08-27T12:04:43.712Z,99658.04
2023-08-27T12:07:10.993Z,99659.02
2023-08-27T12:09:38.438Z,99665.56
2023-08-27T12:12:09.342Z,99665.20
2023-08-27T12:14:37.937Z,99656.66
2023-08-27T12:17:09.489Z,99659.54
2023-08-27T12:19:39.830Z,99652.85
2023-08-27T12:22:07.452Z,99650.23
2023-08-27T12:24:36.685Z,99654.36
2023-08-27T12:27:08.450Z,99649.83
2023-08-27T12:29:43.038Z,99649.36
2023-08-27T12:32:20.022Z,99648.27
2023-08-27T12:34:51.404Z,99638.75
2023-08-27T12:37:22.953Z,99637.36
2023-08-27T12:39:51.737Z,99631.22
2023-08-27T12:42:19.622Z,99640.95
2023-08-27T12:44:50.630Z,99637.28
2023-08-27T12:47:18.681Z,99639.52
2023-08-27T12:49:46.583Z,99641.80
2023-08-27T12:52:14.508Z,99639.98
2023-08-27T12:54:42.995Z,99640.04
2023-08-27T12:57:11.125Z,99639.13
2023-08-27T12:59:38.573Z,99638.60
2023-08-27T13:02:06.089Z,99640.23
2023-08-27T13:04:33.484Z,99638.88
2023-08-27T13:07:00.781Z,99642.38
2023-08-27T13:09:28.110Z,99639.27
2023-08-27T13:11:56.438Z,99641.98
2023-08-27T13:14:24.687Z,99643.95
2023-08-27T13:16:52.050Z,99635.41
2023-08-27T13:19:19.379Z,99635.15
2023-08-27T13:21:47.890Z,99639.93
2023-08-27T13:24:15.471Z,99640.84
2023-08-27T13:26:42.775Z,99636.97
2023-08-27T13:29:10.130Z,99635.31
2023-08-27T13:31:38.778Z,99638.02
2023-08-27T13:34:07.079Z,99635.14
2023-08-27T13:36:34.400Z,99636.29
2023-08-27T13:39:01.715Z,99634.02
2023-08-27T13:41:29.070Z,99634.12
2023-08-27T13:43:57.684Z,99636.94
2023-08-27T13:46:25.082Z,99643.40
2023-08-27T13:48:52.352Z,99642.38
2023-08-27T13:51:19.786Z,99647.98
2023-08-27T13:53:47.050Z,99648.10
2023-08-27T13:56:14.339Z,99651.18
2023-08-27T13:58:42.424Z,99651.20
2023-08-27T14:01:09.781Z,99650.39
2023-08-27T14:03:37.226Z,99649.47
2023-08-27T14:06:04.670Z,99645.14
2023-08-27T14:08:32.012Z,99644.05
2023-08-27T14:10:59.420Z,99643.99
2023-08-27T14:13:27.112Z,99641.53
2023-08-27T14:15:55.622Z,99642.10
2023-08-27T14:18:23.127Z,99642.19
2023-08-27T14:20:50.403Z,99644.34
2023-08-27T14:23:17.707Z,99640.51
2023-08-27T14:25:45.300Z,99640.65
2023-08-27T14:28:12.601Z,99644.63
2023-08-27T14:30:40.053Z,99643.25
2023-08-27T14:33:07.665Z,99639.02
2023-08-27T14:35:34.963Z,99640.61
2023-08-27T14:38:02.597Z,99636.31
2023-08-27T14:40:30.086Z,99638.56
2023-08-27T14:42:57.392Z,99637.38
2023-08-27T14:45:24.770Z,99644.13
2023-08-27T14:47:53.671Z,99644.16
2023-08-27T14:50:21.412Z,99648.46
2023-08-27T14:52:48.764Z,99646.08
2023-08-27T14:55:16.109Z,99651.14
2023-08-27T14:57:50.613Z,99651.92
2023-08-27T15:00:18.465Z,99651.23
2023-08-27T15:02:45.823Z,99650.98
2023-08-27T15:05:13.937Z,99647.67
2023-08-27T15:07:41.277Z,99643.81
2023-08-27T15:10:09.017Z,99642.38
2023-08-27T15:12:36.376Z,99639.36
2023-08-27T15:15:03.879Z,99645.55
2023-08-27T15:17:31.221Z,99645.23
2023-08-27T15:19:58.531Z,99639.21
2023-08-27T15:22:25.846Z,99639.41
2023-08-27T15:24:53.143Z,99632.01
2023-08-27T15:27:20.426Z,99631.88
2023-08-27T15:29:47.728Z,99635.48
2023-08-27T15:32:15.121Z,99634.63
2023-08-27T15:34:43.274Z,99636.94
2023-08-27T15:37:10.741Z,99637.61
2023-08-27T15:39:38.035Z,99634.48
2023-08-27T15:42:05.393Z,99629.50
2023-08-27T15:44:32.684Z,99626.79
2023-08-27T15:46:59.993Z,99622.79
2023-08-27T15:49:27.330Z,99621.27
2023-08-27T15:51:54.883Z,99612.98
2023-08-27T15:54:22.375Z,99612.77
2023-08-27T15:56:49.713Z,99605.33
2023-08-27T15:59:17.043Z,99603.98
2023-08-27T16:01:44.414Z,99605.02
2023-08-27T16:04:11.732Z,99604.13
2023-08-27T16:06:39.097Z,99604.45
2023-08-27T16:09:06.674Z,99600.27
2023-08-27T16:11:33.993Z,99597.28
2023-08-27T16:14:01.889Z,99594.77
2023-08-27T16:16:31.899Z,99594.39
2023-08-27T16:18:59.515Z,99595.05
2023-08-27T16:21:27.187Z,99594.40
2023-08-27T16:23:54.541Z,99594.17
2023-08-27T16:26:21.817Z,99591.80
2023-08-27T16:28:49.551Z,99592.14
2023-08-27T16:31:20.489Z,99587.95
2023-08-27T16:33:47.891Z,99587.40
2023-08-27T16:36:15.432Z,99585.89
2023-08-27T16:38:43.352Z,99588.65
2023-08-27T16:41:12.637Z,99590.60
2023-08-27T16:46:39.491Z,99628.63
2023-08-27T16:49:06.853Z,99622.36
2023-08-27T16:51:34.164Z,99615.36
2023-08-27T16:54:01.465Z,99615.19
2023-08-27T16:56:28.780Z,99613.45
2023-08-27T16:58:56.083Z,99614.95
2023-08-27T17:01:23.714Z,99609.84
2023-08-27T17:03:51.267Z,99614.81
2023-08-27T17:06:18.609Z,99616.20
2023-08-27T17:08:46.144Z,99615.84
2023-08-27T17:11:17.131Z,99616.47
2023-08-27T17:13:44.395Z,99612.25
2023-08-27T17:16:11.763Z,99609.08
2023-08-27T17:18:39.459Z,99608.73
2023-08-27T17:21:06.867Z,99610.66
2023-08-27T17:23:34.136Z,99609.60
2023-08-27T17:26:01.452Z,99613.69
2023-08-27T17:28:28.739Z,99609.79
2023-08-27T17:30:59.480Z,99606.96
2023-08-27T17:33:28.801Z,99607.99
2023-08-27T17:35:56.094Z,99608.64
2023-08-27T17:38:23.489Z,99606.34
2023-08-27T17:40:51.487Z,99607.16
2023-08-27T17:43:18.801Z,99606.02
2023-08-27T17:45:46.264Z,99601.83
2023-08-27T17:48:13.693Z,99600.76
2023-08-27T17:50:41.355Z,99602.09
2023-08-27T17:53:09.033Z,99606.30
2023-08-27T17:55:37.656Z,99600.86
2023-08-27T17:58:05.415Z,99593.64
2023-08-27T18:00:33.300Z,99588.89
2023-08-27T18:03:00.894Z,99590.86
2023-08-27T18:05:28.221Z,99591.86
2023-08-27T18:07:55.506Z,99587.56
2023-08-27T18:10:22.922Z,99587.92
2023-08-27T18:12:50.302Z,99588.19
2023-08-27T18:15:17.635Z,99586.67
2023-08-27T18:17:45.010Z,99583.98
2023-08-27T18:20:13.703Z,99580.92
2023-08-27T18:22:41.168Z,99586.46
2023-08-27T18:25:08.701Z,99580.33
2023-08-27T18:27:35.996Z,99581.13
2023-08-27T18:30:03.662Z,99585.80
2023-08-27T18:32:31.087Z,99581.51
2023-08-27T18:34:58.410Z,99584.63
2023-08-27T18:37:25.761Z,99578.33
2023-08-27T18:39:53.148Z,99571.43
2023-08-27T18:42:32.827Z,99574.42
2023-08-27T18:45:01.409Z,99574.70
2023-08-27T18:47:28.940Z,99573.92
2023-08-27T18:49:56.367Z,99574.42
2023-08-27T18:52:23.706Z,99573.34
2023-08-27T18:54:51.076Z,99566.89
2023-08-27T18:57:18.658Z,99565.75
2023-08-27T18:59:45.971Z,99562.08
2023-08-27T19:02:13.471Z,99559.86
2023-08-27T19:04:41.057Z,99559.38
2023-08-27T19:07:08.415Z,99559.22
2023-08-27T19:09:35.742Z,99555.98
2023-08-27T19:12:03.564Z,99554.94
2023-08-27T19:14:30.959Z,99557.91
2023-08-27T19:16:59.800Z,99556.89
2023-08-27T19:19:27.830Z,99549.58
2023-08-27T19:21:55.284Z,99548.23
2023-08-27T19:24:22.560Z,99544.52
2023-08-27T19:26:49.872Z,99545.66
2023-08-27T19:29:17.238Z,99545.71
2023-08-27T19:31:47.334Z,99543.95
2023-08-27T19:34:15.892Z,99539.44
2023-08-27T19:36:44.123Z,99538.05
2023-08-27T19:39:14.518Z,99538.69
2023-08-27T19:41:43.131Z,99539.15
2023-08-27T19:44:10.661Z,99539.20
2023-08-27T19:46:38.062Z,99546.23
2023-08-27T19:49:05.823Z,99547.89
2023-08-27T19:51:35.166Z,99544.91
2023-08-27T19:54:02.720Z,99544.77
2023-08-27T19:56:31.181Z,99550.52
2023-08-27T19:58:58.542Z,99547.93
2023-08-27T20:01:25.958Z,99548.05
2023-08-27T20:03:53.304Z,99549.48
2023-08-27T20:06:20.656Z,99544.00
2023-08-27T20:08:47.988Z,99544.34
2023-08-27T20:11:15.394Z,99539.33
2023-08-27T20:13:42.670Z,99543.41
2023-08-27T20:16:10.219Z,99539.20
2023-08-27T20:18:37.551Z,99539.86
2023-08-27T20:21:05.708Z,99536.59
2023-08-27T20:23:33.018Z,99535.23
2023-08-27T20:26:01.606Z,99528.75
2023-08-27T20:28:28.930Z,99529.55
2023-08-27T20:30:56.354Z,99523.22
2023-08-27T20:33:24.130Z,99527.77
2023-08-27T20:35:51.468Z,99523.73
2023-08-27T20:38:18.783Z,99522.69
2023-08-27T20:40:46.083Z,99519.70
2023-08-27T20:43:15.967Z,99517.09
2023-08-27T20:45:44.317Z,99515.65
2023-08-27T20:48:12.007Z,99513.16
2023-08-27T20:50:39.867Z,99509.17
2023-08-27T20:53:07.421Z,99497.77
2023-08-27T20:55:34.732Z,99494.17
2023-08-27T20:58:02.972Z,99489.39
2023-08-27T21:00:30.407Z,99487.15
2023-08-27T21:02:57.894Z,99485.14
2023-08-27T21:05:25.304Z,99481.55
2023-08-27T21:07:52.595Z,99482.36
2023-08-27T21:10:21.912Z,99486.80
2023-08-27T21:12:49.244Z,99484.83
2023-08-27T21:15:16.629Z,99482.55
2023-08-27T21:17:43.997Z,99480.23
2023-08-27T21:20:11.616Z,99481.11
2023-08-27T21:22:39.414Z,99477.95
2023-08-27T21:25:07.008Z,99475.96
2023-08-27T21:27:35.037Z,99472.03
2023-08-27T21:30:02.345Z,99468.14
2023-08-27T21:32:30.802Z,99464.52
2023-08-27T21:34:58.293Z,99464.98
2023-08-27T21:37:25.623Z,99462.62
2023-08-27T21:39:52.984Z,99466.39
2023-08-27T21:42:20.366Z,99463.95
2023-08-27T21:44:47.650Z,99462.80
2023-08-27T21:47:14.909Z,99459.49
2023-08-27T21:49:42.417Z,99455.12
2023-08-27T21:52:09.682Z,99454.21
2023-08-27T21:54:38.124Z,99452.67
2023-08-27T21:57:05.737Z,99454.52
2023-08-27T21:59:33.064Z,99457.83
2023-08-27T22:02:00.610Z,99452.65
2023-08-27T22:04:30.546Z,99452.14
2023-08-27T22:06:58.017Z,99450.24
2023-08-27T22:09:25.898Z,99447.22
2023-08-27T22:11:53.255Z,99445.00
2023-08-27T22:14:21.371Z,99443.85
2023-08-27T22:16:49.190Z,99443.95
2023-08-27T22:19:23.669Z,99441.39
2023-08-27T22:21:51.753Z,99439.34
2023-08-27T22:24:19.119Z,99437.24
2023-08-27T22:26:46.466Z,99433.98
2023-08-27T22:29:13.851Z,99433.73
2023-08-27T22:31:41.214Z,99429.33
2023-08-27T22:34:08.478Z,99429.88
2023-08-27T22:36:35.757Z,99433.25
2023-08-27T22:39:03.255Z,99431.89
2023-08-27T22:41:30.505Z,99429.59
2023-08-27T22:43:57.767Z,99426.41
2023-08-27T22:46:25.453Z,99431.03
2023-08-27T22:48:52.841Z,99432.30
2023-08-27T22:51:20.142Z,99429.44
2023-08-27T22:53:47.547Z,99424.56
2023-08-27T22:56:14.820Z,99423.72
2023-08-27T22:58:42.137Z,99425.45
2023-08-27T23:01:10.618Z,99429.05
2023-08-27T23:03:38.226Z,99428.19
2023-08-27T23:06:05.572Z,99432.18
2023-08-27T23:08:33.020Z,99427.52
2023-08-27T23:11:00.297Z,99423.96
2023-08-27T23:13:27.671Z,99428.00
2023-08-27T23:15:55.794Z,99430.02
2023-08-27T23:18:23.038Z,99431.11
2023-08-27T23:20:52.074Z,99432.86
2023-08-27T23:23:19.625Z,99430.53
2023-08-27T23:25:47.398Z,99430.18
2023-08-27T23:28:16.070Z,99430.50
2023-08-27T23:30:43.689Z,99425.83
2023-08-27T23:33:11.143Z,99421.42
2023-08-27T23:35:39.088Z,99418.13
2023-08-27T23:38:06.727Z,99419.05
2023-08-27T23:40:34.014Z,99414.91
2023-08-27T23:43:01.382Z,99409.17
2023-08-27T23:45:28.996Z,99406.73
2023-08-27T23:47:56.368Z,99406.52
2023-08-27T23:50:23.653Z,99404.36
2023-08-27T23:52:50.998Z,99406.06
2023-08-27T23:55:18.282Z,99407.28
2023-08-27T23:57:45.632Z,99407.95
